sensor_id;sensor_type;location;lat;lon;timestamp;pressure;altitude;pressure_sealevel;temperature;humidity
36600;BME280;35385;55.668;37.508;2022-12-07T00:00:28;-207012.78;;;54.60;100.00
36600;BME280;35385;55.668;37.508;2022-12-07T00:01:32;-206815.72;;;54.63;100.00
36600;BME280;35385;55.668;37.508;2022-12-07T00:02:32;-206877.81;;;54.62;100.00
36600;BME280;35385;55.668;37.508;2022-12-07T00:03:33;-206682.19;;;54.64;100.00
36600;BME280;35385;55.668;37.508;2022-12-07T00:04:34;-206615.41;;;54.65;100.00
36600;BME280;35385;55.668;37.508;2022-12-07T00:05:34;-206677.56;;;54.64;100.00
36600;BME280;35385;55.668;37.508;2022-12-07T00:06:35;-206682.19;;;54.64;100.00
36600;BME280;35385;55.668;37.508;2022-12-07T00:07:41;-206682.19;;;54.64;100.00
36600;BME280;35385;55.668;37.508;2022-12-07T00:08:41;-206615.41;;;54.65;100.00
36600;BME280;35385;55.668;37.508;2022-12-07T00:09:42;-206891.72;;;54.62;100.00
36600;BME280;35385;55.668;37.508;2022-12-07T00:10:42;-206744.31;;;54.63;100.00
36600;BME280;35385;55.668;37.508;2022-12-07T00:11:43;-206691.44;;;54.64;100.00
36600;BME280;35385;55.668;37.508;2022-12-07T00:12:43;-206543.94;;;54.66;100.00
36600;BME280;35385;55.668;37.508;2022-12-07T00:13:44;-206396.34;;;54.68;100.00
36600;BME280;35385;55.668;37.508;2022-12-07T00:14:44;-206455.50;;;54.67;100.00
36600;BME280;35385;55.668;37.508;2022-12-07T00:15:45;-206691.44;;;54.64;100.00
36600;BME280;35385;55.668;37.508;2022-12-07T00:16:45;-206815.72;;;54.63;100.00
36600;BME280;35385;55.668;37.508;2022-12-07T00:17:48;-206677.56;;;54.64;100.00
36600;BME280;35385;55.668;37.508;2022-12-07T00:18:49;-206414.88;;;54.68;100.00
36600;BME280;35385;55.668;37.508;2022-12-07T00:19:49;-206256.47;;;54.69;100.00
36600;BME280;35385;55.668;37.508;2022-12-07T00:20:49;-205954.44;;;54.73;100.00
36600;BME280;35385;55.668;37.508;2022-12-07T00:21:50;-206138.03;;;54.71;100.00
36600;BME280;35385;55.668;37.508;2022-12-07T00:22:50;-206078.81;;;54.72;100.00
36600;BME280;35385;55.668;37.508;2022-12-07T00:23:52;-206128.75;;;54.71;100.00
36600;BME280;35385;55.668;37.508;2022-12-07T00:24:52;-206055.66;;;54.72;100.00
36600;BME280;35385;55.668;37.508;2022-12-07T00:25:53;-206086.81;;;54.71;100.00
36600;BME280;35385;55.668;37.508;2022-12-07T00:26:53;-206074.22;;;54.72;100.00
36600;BME280;35385;55.668;37.508;2022-12-07T00:27:54;-205910.91;;;54.74;100.00
36600;BME280;35385;55.668;37.508;2022-12-07T00:28:59;-205787.75;;;54.75;100.00
36600;BME280;35385;55.668;37.508;2022-12-07T00:29:59;-205588.13;;;54.78;100.00
36600;BME280;35385;55.668;37.508;2022-12-07T00:31:01;-205510.22;;;54.79;100.00
36600;BME280;35385;55.668;37.508;2022-12-07T00:32:01;-205632.03;;;54.77;100.00
36600;BME280;35385;55.668;37.508;2022-12-07T00:33:01;-205510.22;;;54.79;100.00
36600;BME280;35385;55.668;37.508;2022-12-07T00:34:02;-205386.81;;;54.80;100.00
36600;BME280;35385;55.668;37.508;2022-12-07T00:35:02;-205343.19;;;54.81;100.00
36600;BME280;35385;55.668;37.508;2022-12-07T00:36:04;-205168.38;;;54.83;100.00
36600;BME280;35385;55.668;37.508;2022-12-07T00:37:05;-204949.72;;;54.85;100.00
36600;BME280;35385;55.668;37.508;2022-12-07T00:38:06;-205067.19;;;54.84;100.00
36600;BME280;35385;55.668;37.508;2022-12-07T00:39:06;-205076.03;;;54.84;100.00
36600;BME280;35385;55.668;37.508;2022-12-07T00:40:06;-205190.81;;;54.82;100.00
36600;BME280;35385;55.668;37.508;2022-12-07T00:41:12;-205090.31;;;54.84;100.00
36600;BME280;35385;55.668;37.508;2022-12-07T00:42:12;-204935.88;;;54.85;100.00
36600;BME280;35385;55.668;37.508;2022-12-07T00:43:13;-204815.22;;;54.87;100.00
36600;BME280;35385;55.668;37.508;2022-12-07T00:44:13;-204657.47;;;54.89;100.00
36600;BME280;35385;55.668;37.508;2022-12-07T00:45:13;-204275.38;;;54.93;100.00
36600;BME280;35385;55.668;37.508;2022-12-07T00:46:14;-204107.59;;;54.95;100.00
36600;BME280;35385;55.668;37.508;2022-12-07T00:47:15;-204102.97;;;54.95;100.00
36600;BME280;35385;55.668;37.508;2022-12-07T00:48:18;-204043.25;;;54.96;100.00
36600;BME280;35385;55.668;37.508;2022-12-07T00:49:19;-203905.09;;;54.98;96.37
36600;BME280;35385;55.668;37.508;2022-12-07T00:50:19;-203763.94;;;54.99;85.48
36600;BME280;35385;55.668;37.508;2022-12-07T00:51:23;-203974.19;;;54.97;100.00
36600;BME280;35385;55.668;37.508;2022-12-07T00:52:24;-204193.56;;;54.94;100.00
36600;BME280;35385;55.668;37.508;2022-12-07T00:53:24;-204089.06;;;54.95;100.00
36600;BME280;35385;55.668;37.508;2022-12-07T00:54:25;-204033.97;;;54.96;100.00
36600;BME280;35385;55.668;37.508;2022-12-07T00:55:25;-203900.50;;;54.98;96.35
36600;BME280;35385;55.668;37.508;2022-12-07T00:56:26;-203697.91;;;55.00;79.31
36600;BME280;35385;55.668;37.508;2022-12-07T00:57:27;-203663.31;;;55.01;76.42
36600;BME280;35385;55.668;37.508;2022-12-07T00:58:28;-203895.88;;;54.98;96.25
36600;BME280;35385;55.668;37.508;2022-12-07T00:59:31;-204094.69;;;54.96;100.00
36600;BME280;35385;55.668;37.508;2022-12-07T01:00:32;-204425.66;;;54.91;100.00
36600;BME280;35385;55.668;37.508;2022-12-07T01:01:34;-204098.31;;;54.95;100.00
36600;BME280;35385;55.668;37.508;2022-12-07T01:02:35;-203836.06;;;54.99;90.64
36600;BME280;35385;55.668;37.508;2022-12-07T01:03:36;-203625.69;;;55.01;73.09
36600;BME280;35385;55.668;37.508;2022-12-07T01:04:36;-203551.91;;;55.02;67.41
36600;BME280;35385;55.668;37.508;2022-12-07T01:05:37;-203496.69;;;55.03;61.58
36600;BME280;35385;55.668;37.508;2022-12-07T01:06:38;-203621.06;;;55.01;73.06
36600;BME280;35385;55.668;37.508;2022-12-07T01:07:40;-203697.91;;;55.00;79.22
36600;BME280;35385;55.668;37.508;2022-12-07T01:08:41;-203969.56;;;54.97;100.00
36600;BME280;35385;55.668;37.508;2022-12-07T01:09:41;-203740.75;;;54.99;85.37
36600;BME280;35385;55.668;37.508;2022-12-07T01:10:42;-203697.91;;;55.00;79.27
36600;BME280;35385;55.668;37.508;2022-12-07T01:11:42;-204043.25;;;54.96;100.00
36600;BME280;35385;55.668;37.508;2022-12-07T01:12:42;-204038.63;;;54.96;100.00
36600;BME280;35385;55.668;37.508;2022-12-07T01:13:43;-203974.19;;;54.97;100.00
36600;BME280;35385;55.668;37.508;2022-12-07T01:14:43;-203763.94;;;54.99;85.41
36600;BME280;35385;55.668;37.508;2022-12-07T01:15:44;-203452.81;;;55.03;58.77
36600;BME280;35385;55.668;37.508;2022-12-07T01:16:45;-203616.47;;;55.01;73.03
36600;BME280;35385;55.668;37.508;2022-12-07T01:17:45;-204132.81;;;54.95;100.00
36600;BME280;35385;55.668;37.508;2022-12-07T01:18:46;-204130.72;;;54.95;100.00
36600;BME280;35385;55.668;37.508;2022-12-07T01:19:47;-203711.81;;;55.00;79.21
36600;BME280;35385;55.668;37.508;2022-12-07T01:20:56;-203561.16;;;55.02;67.39
36600;BME280;35385;55.668;37.508;2022-12-07T01:21:56;-203561.16;;;55.02;67.34
36600;BME280;35385;55.668;37.508;2022-12-07T01:22:57;-203302.97;;;55.05;43.79
36600;BME280;35385;55.668;37.508;2022-12-07T01:23:57;-203528.78;;;55.02;67.31
36600;BME280;35385;55.668;37.508;2022-12-07T01:24:58;-203549.81;;;55.02;63.95
36600;BME280;35385;55.668;37.508;2022-12-07T01:25:59;-203155.28;;;55.07;32.13
36600;BME280;35385;55.668;37.508;2022-12-07T01:27:00;-203418.22;;;55.04;54.84
36600;BME280;35385;55.668;37.508;2022-12-07T01:28:00;-203427.47;;;55.04;54.86
36600;BME280;35385;55.668;37.508;2022-12-07T01:29:00;-203644.22;;;55.01;73.01
36600;BME280;35385;55.668;37.508;2022-12-07T01:30:02;-203707.16;;;55.00;79.20
36600;BME280;35385;55.668;37.508;2022-12-07T01:31:07;-203531.28;;;55.02;63.99
36600;BME280;35385;55.668;37.508;2022-12-07T01:32:13;-203159.91;;;55.07;32.14
36600;BME280;35385;55.668;37.508;2022-12-07T01:33:13;-203284.47;;;55.05;43.74
36600;BME280;35385;55.668;37.508;2022-12-07T01:34:14;-203150.66;;;55.07;32.12
36600;BME280;35385;55.668;37.508;2022-12-07T01:35:14;-203082.88;;;55.08;25.81
36600;BME280;35385;55.668;37.508;2022-12-07T01:36:16;-203027.59;;;55.09;19.47
36600;BME280;35385;55.668;37.508;2022-12-07T01:37:16;-202858.91;;;55.11;4.76
36600;BME280;35385;55.668;37.508;2022-12-07T01:38:17;-202673.22;;;55.13;0.00
36600;BME280;35385;55.668;37.508;2022-12-07T01:39:17;-202849.66;;;55.11;4.76
36600;BME280;35385;55.668;37.508;2022-12-07T01:40:18;-202484.22;;;55.15;0.00
36600;BME280;35385;55.668;37.508;2022-12-07T01:41:18;-202460.31;;;55.15;0.00
36600;BME280;35385;55.668;37.508;2022-12-07T01:42:19;-202464.94;;;55.15;0.00
36600;BME280;35385;55.668;37.508;2022-12-07T01:43:19;-202654.69;;;55.13;0.00
36600;BME280;35385;55.668;37.508;2022-12-07T01:44:27;-202182.47;;;55.19;0.00
36600;BME280;35385;55.668;37.508;2022-12-07T01:46:33;-202464.94;;;55.15;0.00
36600;BME280;35385;55.668;37.508;2022-12-07T01:47:39;-202191.72;;;55.19;0.00
36600;BME280;35385;55.668;37.508;2022-12-07T01:48:40;-202063.41;;;55.20;0.00
36600;BME280;35385;55.668;37.508;2022-12-07T01:49:45;-202044.91;;;55.20;0.00
36600;BME280;35385;55.668;37.508;2022-12-07T01:50:50;-202105.25;;;55.19;0.00
36600;BME280;35385;55.668;37.508;2022-12-07T01:51:52;-202087.38;;;55.20;0.00
36600;BME280;35385;55.668;37.508;2022-12-07T01:52:55;-202132.97;;;55.19;0.00
36600;BME280;35385;55.668;37.508;2022-12-07T01:53:57;-202123.75;;;55.19;0.00
36600;BME280;35385;55.668;37.508;2022-12-07T01:54:59;-202078.13;;;55.20;0.00
36600;BME280;35385;55.668;37.508;2022-12-07T01:56:01;-202620.69;;;55.14;0.00
36600;BME280;35385;55.668;37.508;2022-12-07T01:57:01;-202842.72;;;55.11;1.29
36600;BME280;35385;55.668;37.508;2022-12-07T01:58:03;-202530.50;;;55.15;0.00
36600;BME280;35385;55.668;37.508;2022-12-07T01:59:04;-202552.81;;;55.14;0.00
36600;BME280;35385;55.668;37.508;2022-12-07T02:00:05;-202868.16;;;55.11;4.75
36600;BME280;35385;55.668;37.508;2022-12-07T02:01:05;-203046.06;;;55.09;19.46
36600;BME280;35385;55.668;37.508;2022-12-07T02:02:08;-202842.72;;;55.11;1.29
36600;BME280;35385;55.668;37.508;2022-12-07T02:03:11;-202629.94;;;55.14;0.00
36600;BME280;35385;55.668;37.508;2022-12-07T02:04:15;-202488.09;;;55.15;0.00
36600;BME280;35385;55.668;37.508;2022-12-07T02:05:16;-202424.78;;;55.16;0.00
36600;BME280;35385;55.668;37.508;2022-12-07T02:06:18;-202710.22;;;55.13;0.00
36600;BME280;35385;55.668;37.508;2022-12-07T02:07:20;-203473.78;;;55.04;54.77
36600;BME280;35385;55.668;37.508;2022-12-07T02:08:22;-203561.50;;;55.03;61.43
36600;BME280;35385;55.668;37.508;2022-12-07T02:09:24;-203685.88;;;55.01;72.90
36600;BME280;35385;55.668;37.508;2022-12-07T02:10:28;-203124.56;;;55.08;25.77
36600;BME280;35385;55.668;37.508;2022-12-07T02:11:28;-203064.59;;;55.09;19.45
36600;BME280;35385;55.668;37.508;2022-12-07T02:12:28;-202861.25;;;55.11;1.29
36600;BME280;35385;55.668;37.508;2022-12-07T02:13:49;-203685.88;;;55.01;72.88
36600;BME280;35385;55.668;37.508;2022-12-07T02:14:50;-203552.22;;;55.03;61.49
36600;BME280;35385;55.668;37.508;2022-12-07T02:16:58;-203762.72;;;55.00;79.05
36600;BME280;35385;55.668;37.508;2022-12-07T02:25:03;-203304.72;;;55.06;36.98
36600;BME280;35385;55.668;37.508;2022-12-07T02:28:31;-203979.19;;;54.98;96.09
36600;BME280;35385;55.668;37.508;2022-12-07T02:30:19;-203170.84;;;55.08;25.80
36600;BME280;35385;55.668;37.508;2022-12-07T02:30:54;-203437.06;;;55.04;49.98
36600;BME280;35385;55.668;37.508;2022-12-07T02:35:08;-203865.78;;;54.99;85.21
36600;BME280;35385;55.668;37.508;2022-12-07T02:36:12;-204135.84;;;54.96;100.00
36600;BME280;35385;55.668;37.508;2022-12-07T02:38:40;-203427.78;;;55.04;50.00
36600;BME280;35385;55.668;37.508;2022-12-07T02:39:53;-203140.81;;;55.08;22.89
36600;BME280;35385;55.668;37.508;2022-12-07T02:41:00;-203372.44;;;55.05;43.71
36600;BME280;35385;55.668;37.508;2022-12-07T02:42:03;-203156.94;;;55.08;25.79
36600;BME280;35385;55.668;37.508;2022-12-07T02:43:09;-203266.34;;;55.07;32.11
36600;BME280;35385;55.668;37.508;2022-12-07T02:44:11;-203580.03;;;55.03;61.52
36600;BME280;35385;55.668;37.508;2022-12-07T02:45:15;-204036.88;;;54.97;98.85
36600;BME280;35385;55.668;37.508;2022-12-07T02:46:18;-204178.06;;;54.96;100.00
36600;BME280;35385;55.668;37.508;2022-12-07T02:47:20;-204386.53;;;54.93;100.00
36600;BME280;35385;55.668;37.508;2022-12-07T02:48:21;-204267.66;;;54.94;100.00
36600;BME280;35385;55.668;37.508;2022-12-07T02:49:23;-203997.72;;;54.98;96.14
36600;BME280;35385;55.668;37.508;2022-12-07T02:50:24;-203933.34;;;54.99;90.47
36600;BME280;35385;55.668;37.508;2022-12-07T02:51:25;-204276.91;;;54.94;100.00
36600;BME280;35385;55.668;37.508;2022-12-07T02:52:25;-204007.00;;;54.98;96.08
36600;BME280;35385;55.668;37.508;2022-12-07T02:54:32;-203933.34;;;54.99;90.43
36600;BME280;35385;55.668;37.508;2022-12-07T02:55:34;-204267.66;;;54.94;100.00
36600;BME280;35385;55.668;37.508;2022-12-07T02:56:39;-204057.53;;;54.97;100.00
36600;BME280;35385;55.668;37.508;2022-12-07T03:00:11;-203349.25;;;55.05;43.69
36600;BME280;35385;55.668;37.508;2022-12-07T03:03:35;-203176.16;;;55.07;28.22
36600;BME280;35385;55.668;37.508;2022-12-07T03:06:52;-203722.94;;;55.01;72.78
36600;BME280;35385;55.668;37.508;2022-12-07T03:09:13;-204345.94;;;54.94;100.00
36600;BME280;35385;55.668;37.508;2022-12-07T03:11:16;-203520.06;;;55.04;54.75
36600;BME280;35385;55.668;37.508;2022-12-07T03:12:21;-203732.16;;;55.01;72.83
36600;BME280;35385;55.668;37.508;2022-12-07T03:13:28;-203300.09;;;55.06;36.92
36600;BME280;35385;55.668;37.508;2022-12-07T03:14:31;-202944.44;;;55.10;7.20
36600;BME280;35385;55.668;37.508;2022-12-07T03:16:55;-203732.16;;;55.01;72.73
36600;BME280;35385;55.668;37.508;2022-12-07T03:17:58;-203856.50;;;54.99;85.06
36600;BME280;35385;55.668;37.508;2022-12-07T03:19:04;-204135.84;;;54.96;100.00
36600;BME280;35385;55.668;37.508;2022-12-07T03:20:07;-203891.06;;;54.99;87.44
36600;BME280;35385;55.668;37.508;2022-12-07T03:21:11;-203704.41;;;55.01;72.81
36600;BME280;35385;55.668;37.508;2022-12-07T03:22:14;-203614.63;;;55.02;63.76
36600;BME280;35385;55.668;37.508;2022-12-07T03:23:15;-204290.81;;;54.94;100.00
36600;BME280;35385;55.668;37.508;2022-12-07T03:24:18;-204709.06;;;54.89;100.00
36600;BME280;35385;55.668;37.508;2022-12-07T03:25:19;-204430.28;;;54.93;100.00
36600;BME280;35385;55.668;37.508;2022-12-07T03:26:20;-204355.16;;;54.94;100.00
36600;BME280;35385;55.668;37.508;2022-12-07T03:27:25;-204267.66;;;54.94;100.00
36600;BME280;35385;55.668;37.508;2022-12-07T03:28:29;-204178.06;;;54.96;100.00
36600;BME280;35385;55.668;37.508;2022-12-07T03:29:34;-203900.34;;;54.99;87.47
36600;BME280;35385;55.668;37.508;2022-12-07T03:30:39;-203607.78;;;55.03;61.36
36600;BME280;35385;55.668;37.508;2022-12-07T03:31:43;-203243.19;;;55.07;32.04
36600;BME280;35385;55.668;37.508;2022-12-07T03:32:56;-203395.53;;;55.05;43.62
36600;BME280;35385;55.668;37.508;2022-12-07T03:34:21;-203769.84;;;55.01;76.08
36600;BME280;35385;55.668;37.508;2022-12-07T03:35:24;-203765.22;;;55.01;76.03
36600;BME280;35385;55.668;37.508;2022-12-07T03:36:31;-203736.81;;;55.01;72.69
36600;BME280;35385;55.668;37.508;2022-12-07T03:38:37;-203799.78;;;55.00;78.84
36600;BME280;35385;55.668;37.508;2022-12-07T03:39:50;-203170.84;;;55.08;25.70
36600;BME280;35385;55.668;37.508;2022-12-07T03:40:55;-203110.88;;;55.09;19.38
36600;BME280;35385;55.668;37.508;2022-12-07T03:41:57;-203395.53;;;55.05;43.54
36600;BME280;35385;55.668;37.508;2022-12-07T03:42:59;-203538.59;;;55.04;54.58
36600;BME280;35385;55.668;37.508;2022-12-07T03:44:01;-203617.03;;;55.03;61.21
36600;BME280;35385;55.668;37.508;2022-12-07T03:45:02;-203386.31;;;55.05;43.52
36600;BME280;35385;55.668;37.508;2022-12-07T03:48:36;-203813.66;;;55.00;78.73
36600;BME280;35385;55.668;37.508;2022-12-07T03:49:55;-203884.28;;;54.99;84.88
36600;BME280;35385;55.668;37.508;2022-12-07T03:51:08;-203175.47;;;55.08;25.67
36600;BME280;35385;55.668;37.508;2022-12-07T03:52:22;-203243.19;;;55.07;31.98
36600;BME280;35385;55.668;37.508;2022-12-07T03:53:27;-203529.31;;;55.04;54.57
36600;BME280;35385;55.668;37.508;2022-12-07T03:54:30;-203120.13;;;55.09;19.37
36600;BME280;35385;55.668;37.508;2022-12-07T03:55:34;-203110.88;;;55.09;19.36
36600;BME280;35385;55.668;37.508;2022-12-07T03:56:35;-203792.97;;;55.01;75.90
36600;BME280;35385;55.668;37.508;2022-12-07T03:57:36;-204378.31;;;54.94;100.00
36600;BME280;35385;55.668;37.508;2022-12-07T03:58:38;-203928.09;;;54.99;87.20
36600;BME280;35385;55.668;37.508;2022-12-07T03:59:40;-204014.19;;;54.98;93.30
36600;BME280;35385;55.668;37.508;2022-12-07T04:00:42;-204191.41;;;54.96;100.00
36600;BME280;35385;55.668;37.508;2022-12-07T04:01:43;-203893.53;;;54.99;84.82
36600;BME280;35385;55.668;37.508;2022-12-07T04:02:44;-204113.09;;;54.97;100.00
36600;BME280;35385;55.668;37.508;2022-12-07T04:03:44;-204432.84;;;54.93;100.00
36600;BME280;35385;55.668;37.508;2022-12-07T04:04:45;-204237.22;;;54.95;100.00
36600;BME280;35385;55.668;37.508;2022-12-07T04:05:45;-204323.22;;;54.94;100.00
36600;BME280;35385;55.668;37.508;2022-12-07T04:06:46;-204525.47;;;54.92;100.00
36600;BME280;35385;55.668;37.508;2022-12-07T04:07:46;-204251.13;;;54.95;100.00
36600;BME280;35385;55.668;37.508;2022-12-07T04:08:47;-204736.81;;;54.89;100.00
36600;BME280;35385;55.668;37.508;2022-12-07T04:09:47;-204877.59;;;54.88;100.00
36600;BME280;35385;55.668;37.508;2022-12-07T04:10:47;-204362.34;;;54.94;100.00
36600;BME280;35385;55.668;37.508;2022-12-07T04:11:48;-204382.97;;;54.94;100.00
36600;BME280;35385;55.668;37.508;2022-12-07T04:12:48;-204251.13;;;54.95;100.00
36600;BME280;35385;55.668;37.508;2022-12-07T04:13:48;-203921.34;;;54.99;84.63
36600;BME280;35385;55.668;37.508;2022-12-07T04:15:07;-203884.28;;;54.99;84.59
36600;BME280;35385;55.668;37.508;2022-12-07T04:16:08;-203261.72;;;55.07;31.82
36600;BME280;35385;55.668;37.508;2022-12-07T04:17:08;-202793.53;;;55.13;0.00
36600;BME280;35385;55.668;37.508;2022-12-07T04:18:08;-202858.22;;;55.12;0.00
36600;BME280;35385;55.668;37.508;2022-12-07T04:19:09;-203404.81;;;55.05;43.27
36600;BME280;35385;55.668;37.508;2022-12-07T04:20:09;-203271.00;;;55.07;31.77
36600;BME280;35385;55.668;37.508;2022-12-07T04:21:10;-203827.56;;;55.00;78.28
36600;BME280;35385;55.668;37.508;2022-12-07T04:22:10;-203337.13;;;55.06;36.58
36600;BME280;35385;55.668;37.508;2022-12-07T04:23:11;-203846.09;;;55.00;78.22
36600;BME280;35385;55.668;37.508;2022-12-07T04:24:11;-203928.09;;;54.99;86.64
36600;BME280;35385;55.668;37.508;2022-12-07T04:25:12;-203497.25;;;55.04;49.43
36600;BME280;35385;55.668;37.508;2022-12-07T04:26:13;-203404.81;;;55.05;43.22
36600;BME280;35385;55.668;37.508;2022-12-07T04:27:13;-203404.81;;;55.05;43.21
36600;BME280;35385;55.668;37.508;2022-12-07T04:28:14;-203271.00;;;55.07;31.71
36600;BME280;35385;55.668;37.508;2022-12-07T04:29:14;-202704.03;;;55.14;0.00
36600;BME280;35385;55.668;37.508;2022-12-07T04:30:15;-203094.72;;;55.09;16.31
36600;BME280;35385;55.668;37.508;2022-12-07T04:31:15;-203332.47;;;55.06;36.46
36600;BME280;35385;55.668;37.508;2022-12-07T04:32:16;-203341.75;;;55.06;36.45
36600;BME280;35385;55.668;37.508;2022-12-07T04:33:16;-202494.22;;;55.16;0.00
36600;BME280;35385;55.668;37.508;2022-12-07T04:34:17;-202066.41;;;55.21;0.00
36600;BME280;35385;55.668;37.508;2022-12-07T04:35:18;-201654.81;;;55.26;0.00
36600;BME280;35385;55.668;37.508;2022-12-07T04:36:18;-201868.44;;;55.24;0.00
36600;BME280;35385;55.668;37.508;2022-12-07T04:37:19;-202146.69;;;55.20;0.00
36600;BME280;35385;55.668;37.508;2022-12-07T04:38:20;-202012.25;;;55.22;0.00
36600;BME280;35385;55.668;37.508;2022-12-07T04:39:21;-201176.06;;;55.32;0.00
36600;BME280;35385;55.668;37.508;2022-12-07T04:40:22;-201485.31;;;55.28;0.00
36600;BME280;35385;55.668;37.508;2022-12-07T04:41:23;-201788.00;;;55.24;0.00
36600;BME280;35385;55.668;37.508;2022-12-07T04:42:26;-201106.19;;;55.33;0.00
36600;BME280;35385;55.668;37.508;2022-12-07T04:43:27;-201733.81;;;55.25;0.00
36600;BME280;35385;55.668;37.508;2022-12-07T04:44:28;-201820.41;;;55.24;0.00
36600;BME280;35385;55.668;37.508;2022-12-07T04:45:28;-201964.25;;;55.23;0.00
36600;BME280;35385;55.668;37.508;2022-12-07T04:46:30;-201677.94;;;55.26;0.00
36600;BME280;35385;55.668;37.508;2022-12-07T04:47:30;-201385.25;;;55.29;0.00
36600;BME280;35385;55.668;37.508;2022-12-07T04:48:31;-201247.38;;;55.31;0.00
36600;BME280;35385;55.668;37.508;2022-12-07T04:49:31;-201226.31;;;55.32;0.00
36600;BME280;35385;55.668;37.508;2022-12-07T04:50:31;-201455.09;;;55.29;0.00
36600;BME280;35385;55.668;37.508;2022-12-07T04:51:32;-201801.91;;;55.24;0.00
36600;BME280;35385;55.668;37.508;2022-12-07T04:52:32;-202174.47;;;55.20;0.00
36600;BME280;35385;55.668;37.508;2022-12-07T04:53:32;-202080.25;;;55.21;0.00
36600;BME280;35385;55.668;37.508;2022-12-07T04:54:33;-201859.19;;;55.24;0.00
36600;BME280;35385;55.668;37.508;2022-12-07T04:55:33;-201829.66;;;55.24;0.00
36600;BME280;35385;55.668;37.508;2022-12-07T04:56:34;-202037.81;;;55.22;0.00
36600;BME280;35385;55.668;37.508;2022-12-07T04:57:35;-201589.81;;;55.27;0.00
36600;BME280;35385;55.668;37.508;2022-12-07T04:58:35;-201087.69;;;55.33;0.00
36600;BME280;35385;55.668;37.508;2022-12-07T04:59:35;-201022.56;;;55.34;0.00
36600;BME280;35385;55.668;37.508;2022-12-07T05:00:36;-200907.59;;;55.35;0.00
36600;BME280;35385;55.668;37.508;2022-12-07T05:01:36;-200495.22;;;55.40;0.00
36600;BME280;35385;55.668;37.508;2022-12-07T05:02:37;-200326.47;;;55.42;0.00
36600;BME280;35385;55.668;37.508;2022-12-07T05:03:37;-200114.88;;;55.44;0.00
36600;BME280;35385;55.668;37.508;2022-12-07T05:04:38;-200037.06;;;55.45;0.00
36600;BME280;35385;55.668;37.508;2022-12-07T05:05:40;-200364.56;;;55.41;0.00
36600;BME280;35385;55.668;37.508;2022-12-07T05:06:40;-199979.34;;;55.46;0.00
36600;BME280;35385;55.668;37.508;2022-12-07T05:07:40;-199635.94;;;55.50;0.00
36600;BME280;35385;55.668;37.508;2022-12-07T05:08:41;-199988.59;;;55.46;0.00
36600;BME280;35385;55.668;37.508;2022-12-07T05:09:41;-200326.47;;;55.42;0.00
36600;BME280;35385;55.668;37.508;2022-12-07T05:10:42;-200198.72;;;55.44;0.00
36600;BME280;35385;55.668;37.508;2022-12-07T05:11:42;-200624.84;;;55.39;0.00
36600;BME280;35385;55.668;37.508;2022-12-07T05:12:43;-200674.72;;;55.38;0.00
36600;BME280;35385;55.668;37.508;2022-12-07T05:13:43;-200972.75;;;55.34;0.00
36600;BME280;35385;55.668;37.508;2022-12-07T05:14:44;-200606.34;;;55.39;0.00
36600;BME280;35385;55.668;37.508;2022-12-07T05:15:44;-200326.47;;;55.42;0.00
36600;BME280;35385;55.668;37.508;2022-12-07T05:16:45;-200105.63;;;55.44;0.00
36600;BME280;35385;55.668;37.508;2022-12-07T05:17:46;-200159.19;;;55.44;0.00
36600;BME280;35385;55.668;37.508;2022-12-07T05:18:46;-199791.75;;;55.48;0.00
36600;BME280;35385;55.668;37.508;2022-12-07T05:19:47;-199408.75;;;55.53;0.00
36600;BME280;35385;55.668;37.508;2022-12-07T05:20:47;-199194.84;;;55.55;0.00
36600;BME280;35385;55.668;37.508;2022-12-07T05:21:47;-199194.84;;;55.55;0.00
36600;BME280;35385;55.668;37.508;2022-12-07T05:22:48;-199220.78;;;55.55;0.00
36600;BME280;35385;55.668;37.508;2022-12-07T05:23:48;-198702.50;;;55.61;0.00
36600;BME280;35385;55.668;37.508;2022-12-07T05:24:48;-198837.06;;;55.59;0.00
36600;BME280;35385;55.668;37.508;2022-12-07T05:25:49;-198688.63;;;55.61;0.00
36600;BME280;35385;55.668;37.508;2022-12-07T05:26:49;-198904.31;;;55.58;0.00
36600;BME280;35385;55.668;37.508;2022-12-07T05:27:50;-199298.81;;;55.54;0.00
36600;BME280;35385;55.668;37.508;2022-12-07T05:28:51;-199084.81;;;55.56;0.00
36600;BME280;35385;55.668;37.508;2022-12-07T05:29:51;-199335.41;;;55.53;0.00
36600;BME280;35385;55.668;37.508;2022-12-07T05:30:52;-199399.50;;;55.53;0.00
36600;BME280;35385;55.668;37.508;2022-12-07T05:31:52;-199049.63;;;55.57;0.00
36600;BME280;35385;55.668;37.508;2022-12-07T05:32:53;-199616.28;;;55.50;0.00
36600;BME280;35385;55.668;37.508;2022-12-07T05:33:53;-199698.84;;;55.49;0.00
36600;BME280;35385;55.668;37.508;2022-12-07T05:34:54;-199303.44;;;55.54;0.00
36600;BME280;35385;55.668;37.508;2022-12-07T05:35:54;-199260.59;;;55.54;0.00
36600;BME280;35385;55.668;37.508;2022-12-07T05:36:55;-199443.94;;;55.52;0.00
36600;BME280;35385;55.668;37.508;2022-12-07T05:37:55;-200114.88;;;55.44;0.00
36600;BME280;35385;55.668;37.508;2022-12-07T05:38:57;-199825.25;;;55.48;0.00
36600;BME280;35385;55.668;37.508;2022-12-07T05:39:57;-199874.19;;;55.47;0.00
36600;BME280;35385;55.668;37.508;2022-12-07T05:41:01;-200180.22;;;55.44;0.00
36600;BME280;35385;55.668;37.508;2022-12-07T05:42:02;-200321.84;;;55.42;0.00
36600;BME280;35385;55.668;37.508;2022-12-07T05:43:12;-200649.00;;;55.38;0.00
36600;BME280;35385;55.668;37.508;2022-12-07T05:44:12;-200972.75;;;55.34;0.00
36600;BME280;35385;55.668;37.508;2022-12-07T05:45:12;-201115.44;;;55.33;0.00
36600;BME280;35385;55.668;37.508;2022-12-07T05:46:13;-201464.31;;;55.29;0.00
36600;BME280;35385;55.668;37.508;2022-12-07T05:47:14;-201289.94;;;55.31;0.00